Latest Weather Observations for Low Rocky Point

IDT60801

Issued at 6:05 pm EST Monday 28 July 2014 (issued every 30 minutes, with the page automatically refreshed every 10 minutes)

About weather observations | Map of weather stations | Latest weather observations for TAS | Other Formats
Station Details ID: 097080 Name: LOW ROCKY POINT Lat: -42.98 Lon: 145.50 Height: 34.0 m
Data from the previous 72 hours. | See also: Recent months at Low Rocky Point
Date/Time
EST
Temp
°C
App
Temp
°C
Dew
Point
Rel
Hum
%
Delta-T
°C
Wind Press
QNH
hPa
Press
MSL
hPa
Rain
since 9 am
mm
Dir
 
Spd
km/h
Gust
km/h
Spd
kts
Gust
kts
28/06:00pm 11.9 1.2 10.3 90 0.8 NW 57 76 31 41 1000.1 1000.2 7.0
28/05:56pm 11.8 1.6 10.2 90 0.8 NW 54 76 29 41 1000.1 - 7.0
28/05:30pm 11.0 -0.5 10.1 94 0.5 NW 61 78 33 42 1000.3 - 7.0
28/05:04pm 11.2 -0.3 10.1 93 0.6 NNW 61 80 33 43 1000.4 - 6.0
28/05:00pm 11.1 -1.1 10.2 94 0.5 NNW 65 80 35 43 1000.4 1000.5 6.0
28/04:58pm 11.2 -1.7 10.4 95 0.4 NNW 69 80 37 43 1000.5 - 6.0
28/04:39pm 11.0 2.5 10.5 97 0.3 NW 46 67 25 36 1000.1 - 4.4
28/04:30pm 10.3 0.4 9.7 96 0.3 NW 52 67 28 36 1000.0 - 4.2
28/04:07pm 10.5 1.3 9.4 93 0.5 NW 48 69 26 37 1000.5 - 1.4
28/04:00pm 11.0 2.3 9.8 92 0.6 NW 46 57 25 31 1000.8 1000.9 0.8
28/03:58pm 10.8 2.0 9.4 91 0.7 NW 46 57 25 31 1000.7 - 0.8
28/03:34pm 11.1 -1.6 8.5 84 1.3 NW 65 72 35 39 1000.9 - 0.6
28/03:30pm 11.5 2.6 9.2 86 1.2 NNW 46 65 25 35 1001.1 - 0.6
28/03:00pm 11.2 1.6 9.3 88 1.0 NNW 50 72 27 39 1001.4 1001.5 0.4
28/02:41pm 12.7 2.3 9.3 80 1.7 NNW 54 72 29 39 1001.2 - 0.4
28/02:30pm 12.7 1.7 8.6 76 2.0 NNW 56 72 30 39 1001.0 - 0.4
28/02:00pm 12.9 2.3 8.6 75 2.2 NNW 54 69 29 37 1001.9 1002.0 0.4
28/01:30pm 12.7 1.6 7.8 72 2.4 NW 56 69 30 37 1002.5 - 0.4
28/01:09pm 12.6 1.4 8.5 76 2.0 NW 57 76 31 41 1003.2 - 0.4
28/01:00pm 12.4 0.3 7.7 73 2.3 NW 61 72 33 39 1003.2 1003.3 0.4
28/12:30pm 11.7 1.8 9.6 87 1.1 NW 52 85 28 46 1003.8 - 0.4
28/12:20pm 12.6 1.3 8.1 74 2.2 NW 57 78 31 42 1003.8 - 0.0
28/12:00pm 13.0 2.7 8.3 73 2.3 NW 52 63 28 34 1004.3 1004.4 0.0
28/11:30am 13.4 3.1 8.3 71 2.6 NW 52 65 28 35 1004.7 - 0.0
28/11:09am 12.7 3.3 8.6 76 2.0 NW 48 67 26 36 1005.0 - 0.0
28/11:00am 12.6 2.8 8.7 77 2.0 NW 50 63 27 34 1005.1 1005.2 0.0
28/10:30am 12.9 3.1 8.8 76 2.1 NW 50 63 27 34 1005.2 - 0.0
28/10:00am 12.8 3.3 8.5 75 2.2 NW 48 61 26 33 1005.1 1005.2 0.0
28/09:30am 12.9 3.8 8.6 75 2.1 NW 46 57 25 31 1005.2 - 0.0
28/09:00am 12.5 3.0 8.4 76 2.0 NW 48 61 26 33 1005.1 1005.2 14.8
28/08:30am 12.3 2.4 8.4 77 1.9 NW 50 61 27 33 1005.0 - 14.8
28/08:00am 12.2 2.7 8.5 78 1.8 WNW 48 57 26 31 1005.2 1005.3 14.8
28/07:30am 12.2 1.6 8.3 77 1.9 WNW 54 63 29 34 1005.3 - 14.8
28/07:00am 12.2 3.3 9.2 82 1.5 NW 46 61 25 33 1005.3 1005.4 14.8
28/06:30am 12.8 4.4 10.9 88 1.0 NW 46 63 25 34 1005.4 - 14.8
28/06:00am 13.0 2.8 10.0 82 1.6 NW 54 69 29 37 1005.2 1005.3 14.8
28/05:30am 12.9 3.4 9.7 81 1.6 NW 50 69 27 37 1005.3 - 14.8
28/05:03am 12.8 3.4 10.3 85 1.3 NW 50 69 27 37 1005.1 - 14.8
28/05:00am 13.0 3.4 10.7 86 1.2 NW 52 63 28 34 1005.2 1005.3 14.8
28/04:52am 12.8 2.6 10.0 83 1.4 NW 54 72 29 39 1005.2 - 14.8
28/04:30am 12.9 2.7 11.5 91 0.7 NW 56 69 30 37 1005.0 - 14.8
28/04:00am 13.0 3.4 12.2 95 0.4 NW 54 65 29 35 1004.9 1005.0 14.8
28/03:32am 13.2 3.8 12.7 97 0.3 NW 54 72 29 39 1005.1 - 14.8
28/03:30am 13.2 3.4 12.7 97 0.3 NW 56 72 30 39 1005.1 - 14.8
28/03:26am 13.3 4.0 13.0 98 0.2 NW 54 72 29 39 1005.1 - 14.8
28/03:00am 13.0 2.6 12.7 98 0.2 NW 59 76 32 41 1005.1 1005.2 14.8
28/02:30am 13.2 1.8 12.9 98 0.2 NNW 65 87 35 47 1005.1 - 14.6
28/02:00am 12.8 3.4 12.6 99 0.1 NNW 54 72 29 39 1005.4 1005.5 13.0
28/01:30am 12.8 3.3 12.5 98 0.2 NNW 54 74 29 40 1005.6 - 12.8
28/01:00am 12.6 4.1 12.1 97 0.3 NNW 48 70 26 38 1005.7 1005.8 12.6
28/12:30am 12.6 4.1 12.1 97 0.3 NNW 48 69 26 37 1006.3 - 12.4
28/12:00am 12.6 4.2 12.3 98 0.2 NNW 48 70 26 38 1007.0 1007.1 12.2
 
Date/Time
EST
Temp
°C
App
Temp
°C
Dew
Point
Rel
Hum
%
Delta-T
°C
Wind Press
QNH
hPa
Press
MSL
hPa
Rain
since 9 am
mm
Dir
 
Spd
km/h
Gust
km/h
Spd
kts
Gust
kts
27/11:34pm 12.3 6.3 12.1 99 0.1 N 35 54 19 29 1007.6 - 12.0
27/11:30pm 12.2 6.2 12.0 99 0.1 N 35 52 19 28 1007.6 - 12.0
27/11:05pm 12.4 5.3 12.2 99 0.1 NNW 41 59 22 32 1008.3 - 11.6
27/11:00pm 12.3 5.2 12.1 99 0.1 NNW 41 57 22 31 1008.4 1008.5 11.2
27/10:34pm 12.3 4.8 12.1 99 0.1 NNW 43 61 23 33 1008.9 - 10.0
27/10:30pm 12.3 4.6 12.1 99 0.1 NNW 44 61 24 33 1008.9 - 9.8
27/10:00pm 12.5 4.5 12.3 99 0.1 NNW 46 65 25 35 1009.4 1009.5 7.8
27/09:44pm 12.4 4.3 12.2 99 0.1 NNW 46 65 25 35 1009.2 - 7.2
27/09:30pm 12.4 4.3 12.2 99 0.1 NNW 46 63 25 34 1009.5 - 7.0
27/09:04pm 12.3 5.5 12.1 99 0.1 NNW 39 57 21 31 1009.6 - 6.2
27/09:00pm 12.3 5.5 12.1 99 0.1 NNW 39 56 21 30 1009.6 1009.7 6.2
27/08:54pm 12.2 5.8 12.0 99 0.1 NNW 37 56 20 30 1009.8 - 6.2
27/08:30pm 12.2 6.2 12.0 99 0.1 NNW 35 52 19 28 1010.0 - 5.8
27/08:00pm 12.1 6.4 11.9 99 0.1 NNW 33 43 18 23 1010.4 1010.5 4.6
27/07:30pm 12.1 6.4 11.8 98 0.2 NNW 33 44 18 24 1010.6 - 1.2
27/07:00pm 12.3 5.8 11.7 96 0.3 NNW 37 59 20 32 1010.8 1010.9 0.8
27/06:37pm 12.2 5.2 11.3 94 0.5 NNW 39 57 21 31 1010.8 - 0.6
27/06:30pm 12.2 4.5 11.4 95 0.4 NNW 43 54 23 29 1010.8 - 0.6
27/06:00pm 12.4 5.1 11.6 95 0.4 NNW 41 59 22 32 1011.0 1011.1 0.6
27/05:30pm 12.7 5.0 11.6 93 0.6 NNW 43 63 23 34 1011.3 - 0.6
27/05:15pm 12.8 5.5 11.5 92 0.7 NNW 41 59 22 32 1011.4 - 0.6
27/05:00pm 12.9 5.3 11.8 93 0.6 NNW 43 56 23 30 1011.3 1011.4 0.6
27/04:30pm 12.7 5.0 11.4 92 0.7 NNW 43 61 23 33 1011.5 - 0.6
27/04:00pm 12.3 5.7 11.2 93 0.6 NNW 37 56 20 30 1011.7 1011.8 0.6
27/03:46pm 12.2 5.2 11.3 94 0.5 NNW 39 61 21 33 1011.9 - 0.6
27/03:30pm 12.1 5.9 11.3 95 0.4 NNW 35 48 19 26 1012.1 - 0.6
27/03:09pm 12.2 5.6 11.4 95 0.4 NNW 37 56 20 30 1012.1 - 0.6
27/03:00pm 12.2 5.2 11.1 93 0.6 NNW 39 52 21 28 1012.0 1012.1 0.6
27/02:37pm 12.5 5.5 11.2 92 0.7 NNW 39 57 21 31 1012.2 - 0.0
27/02:30pm 12.7 5.0 11.4 92 0.7 NNW 43 57 23 31 1012.3 - 0.0
27/02:00pm 13.2 5.1 10.7 85 1.3 NNW 44 67 24 36 1012.6 1012.7 0.0
27/01:30pm 12.9 4.3 10.3 84 1.3 NNW 46 65 25 35 1013.0 - 0.0
27/01:00pm 13.6 5.5 10.0 79 1.9 NNW 43 61 23 33 1013.5 1013.6 0.0
27/12:40pm 13.1 6.5 9.9 81 1.6 NNW 35 54 19 29 1013.9 - 0.0
27/12:30pm 13.1 6.8 9.7 80 1.7 N 33 44 18 24 1014.2 - 0.0
27/12:00pm 12.4 6.2 9.2 81 1.6 N 32 46 17 25 1014.9 1015.0 0.0
27/11:33am 12.6 6.4 9.2 80 1.7 N 32 50 17 27 1015.3 - 0.0
27/11:30am 12.6 6.2 9.2 80 1.7 N 33 50 18 27 1015.4 - 0.0
27/11:18am 12.4 6.1 9.1 80 1.7 N 32 50 17 27 1015.8 - 0.0
27/11:00am 12.2 5.7 8.9 80 1.6 N 33 46 18 25 1016.3 1016.4 0.0
27/10:30am 11.9 5.6 9.1 83 1.4 N 32 48 17 26 1016.3 - 0.0
27/10:23am 11.8 5.9 9.2 84 1.3 N 30 48 16 26 1016.6 - 0.0
27/10:00am 11.0 5.2 9.4 90 0.8 N 30 39 16 21 1017.0 1017.1 0.0
27/09:30am 10.7 5.5 10.2 97 0.3 N 28 35 15 19 1017.4 - 0.0
27/09:00am 10.0 5.1 9.9 99 0.1 N 26 33 14 18 1017.9 1018.0 0.2
27/08:30am 9.4 4.7 9.3 99 0.0 N 24 32 13 17 1018.3 - -
27/08:00am 9.4 3.9 9.3 99 0.0 N 28 35 15 19 1018.5 1018.6 0.0
27/07:30am 9.0 4.6 8.9 99 0.0 N 22 28 12 15 1018.6 - -
27/07:00am 9.5 5.6 9.4 99 0.0 N 20 26 11 14 1018.7 1018.8 0.0
27/06:30am 10.3 6.2 10.1 99 0.1 N 22 30 12 16 1018.7 - -
27/06:00am 9.8 6.2 9.7 99 0.0 N 19 26 10 14 1018.7 1018.8 0.0
27/05:30am 9.7 5.8 9.6 99 0.0 N 20 26 11 14 1018.8 - -
27/05:00am 9.7 6.0 9.6 99 0.0 N 19 24 10 13 1019.0 1019.1 0.0
27/04:30am 9.4 5.7 9.3 99 0.0 N 19 26 10 14 1019.0 - -
27/04:00am 8.9 4.8 8.8 99 0.0 N 20 24 11 13 1019.1 1019.2 0.0
27/03:30am 8.6 4.1 8.5 99 0.0 N 22 28 12 15 1019.3 - -
27/03:00am 8.9 4.5 8.8 99 0.0 N 22 28 12 15 1019.8 1019.9 0.0
27/02:30am 8.6 4.5 8.5 99 0.0 N 20 28 11 15 1020.3 - -
27/02:00am 8.5 4.0 8.4 99 0.0 NNE 22 28 12 15 1020.3 1020.4 0.0
27/01:30am 8.3 3.7 8.2 99 0.0 NNE 22 26 12 14 1020.3 - -
27/01:00am 8.2 3.6 8.1 99 0.0 N 22 26 12 14 1020.8 1020.8 0.0
27/12:30am 8.0 3.7 7.9 99 0.0 NNE 20 26 11 14 1020.6 - 0.0
27/12:00am 8.6 4.7 8.5 99 0.0 N 19 22 10 12 1021.1 1021.2 0.0
 
Date/Time
EST
Temp
°C
App
Temp
°C
Dew
Point
Rel
Hum
%
Delta-T
°C
Wind Press
QNH
hPa
Press
MSL
hPa
Rain
since 9 am
mm
Dir
 
Spd
km/h
Gust
km/h
Spd
kts
Gust
kts
26/11:30pm 9.2 5.4 9.1 99 0.0 N 19 20 10 11 1021.3 - 0.0
26/11:00pm 8.9 5.4 8.8 99 0.0 N 17 20 9 11 1021.4 1021.5 0.0
26/10:30pm 9.5 5.8 9.4 99 0.0 N 19 20 10 11 1021.7 - 0.0
26/10:00pm 9.1 5.7 9.0 99 0.0 N 17 19 9 10 1021.7 1021.8 0.0
26/09:30pm 8.9 5.8 8.8 99 0.0 N 15 17 8 9 1021.8 - 0.0
26/09:00pm 9.7 6.8 9.6 99 0.0 N 15 17 8 9 1021.8 1021.9 0.0
26/08:30pm 9.7 6.8 9.6 99 0.0 N 15 17 8 9 1021.4 - 0.0
26/08:00pm 10.4 8.0 10.2 99 0.1 N 13 15 7 8 1021.4 1021.5 0.0
26/07:30pm 10.4 8.4 10.1 98 0.2 N 11 13 6 7 1021.4 - 0.0
26/07:00pm 10.1 7.5 9.3 95 0.4 N 13 15 7 8 1021.2 1021.3 0.0
26/06:30pm 11.6 9.8 10.8 95 0.4 W 11 11 6 6 1020.9 - 0.0
26/06:00pm 12.1 10.0 11.2 94 0.5 WNW 13 15 7 8 1020.8 1020.9 0.0
26/05:30pm 12.3 9.8 11.2 93 0.6 WNW 15 19 8 10 1020.7 - 0.0
26/05:00pm 12.6 10.0 10.7 88 1.0 WNW 15 17 8 9 1020.5 1020.6 0.0
26/04:30pm 13.4 11.2 10.8 84 1.4 WNW 13 15 7 8 1020.2 - 0.0
26/04:00pm 13.8 11.2 10.6 81 1.7 WNW 15 17 8 9 1019.9 1020.0 0.0
26/03:30pm 14.3 12.0 10.5 78 2.0 WNW 13 15 7 8 1019.8 - 0.0
26/03:00pm 14.7 12.9 10.7 77 2.1 WNW 11 13 6 7 1019.6 1019.7 0.0
26/02:30pm 14.2 12.3 10.4 78 2.0 WNW 11 13 6 7 1019.5 - 0.0
26/02:00pm 14.7 13.0 11.1 79 1.9 WNW 11 13 6 7 1019.5 1019.6 0.0
26/01:30pm 14.1 12.1 10.1 77 2.1 WNW 11 13 6 7 1019.6 - 0.0
26/01:00pm 14.0 12.0 10.2 78 2.0 WNW 11 13 6 7 1019.8 1019.9 0.0
26/12:30pm 13.7 11.6 9.9 78 2.0 WNW 11 13 6 7 1019.9 - 0.0
26/12:00pm 14.6 13.3 10.0 74 2.4 NNW 7 11 4 6 1020.1 1020.2 0.0
26/11:30am 14.3 12.2 9.9 75 2.3 WNW 11 13 6 7 1020.7 - 0.0
26/11:00am 13.9 12.0 9.1 73 2.4 NW 9 11 5 6 1020.8 1020.9 0.0
26/10:30am 13.7 11.9 9.4 75 2.2 NW 9 13 5 7 1020.8 - 0.0
26/10:00am 12.7 10.7 8.8 77 1.9 N 9 13 5 7 1020.6 1020.7 0.0
26/09:30am 11.3 8.8 8.2 81 1.5 N 11 13 6 7 1020.6 - 0.0
26/09:00am 9.5 5.9 6.9 84 1.2 N 15 15 8 8 1020.4 1020.5 0.0
26/08:30am 8.9 5.2 6.3 84 1.2 N 15 17 8 9 1020.1 - 0.0
26/08:00am 8.7 5.0 6.5 86 1.0 N 15 17 8 9 1019.9 1020.0 0.0
26/07:30am 8.5 4.0 6.3 86 1.0 N 19 20 10 11 1019.6 - 0.0
26/07:00am 8.4 3.7 6.2 86 1.0 N 20 20 11 11 1019.3 1019.4 0.0
26/06:30am 8.6 3.9 6.2 85 1.1 NNE 20 22 11 12 1019.0 - 0.0
26/06:00am 9.0 4.0 6.4 84 1.2 NNE 22 24 12 13 1018.7 1018.8 0.0
26/05:30am 9.2 4.6 6.6 84 1.2 NNE 20 22 11 12 1018.7 - 0.0
26/05:00am 9.0 4.7 7.0 87 0.9 NE 19 20 10 11 1018.5 1018.6 0.0
26/04:30am 8.2 3.3 7.0 92 0.6 NE 22 24 12 13 1018.3 - 0.0
26/04:00am 6.5 2.5 5.0 90 0.7 NE 15 20 8 11 1018.1 1018.2 0.0
26/03:30am 6.8 3.2 4.8 87 0.9 NE 13 19 7 10 1018.2 - 0.0
26/03:00am 9.1 5.0 6.4 83 1.2 NE 17 19 9 10 1018.2 1018.3 0.0
26/02:30am 9.9 5.6 6.8 81 1.5 NNE 19 20 10 11 1018.2 - 0.0
26/02:00am 9.5 5.2 6.9 84 1.2 NE 19 20 10 11 1018.0 1018.1 0.0
26/01:30am 9.0 5.0 6.8 86 1.0 NNE 17 19 9 10 1017.9 - 0.0
26/01:00am 9.0 5.7 6.4 84 1.2 NNE 13 20 7 11 1017.9 1018.0 0.0
26/12:30am 9.1 6.2 6.7 85 1.1 NE 11 13 6 7 1017.8 - 0.0
26/12:00am 9.5 6.7 6.9 84 1.2 NNE 11 15 6 8 1017.8 1017.9 0.0
 
Date/Time
EST
Temp
°C
App
Temp
°C
Dew
Point
Rel
Hum
%
Delta-T
°C
Wind Press
QNH
hPa
Press
MSL
hPa
Rain
since 9 am
mm
Dir
 
Spd
km/h
Gust
km/h
Spd
kts
Gust
kts
25/11:30pm 9.7 8.2 6.6 81 1.4 NE 4 11 2 6 1017.8 - 0.0
25/11:00pm 9.9 7.8 6.8 81 1.5 N 7 13 4 7 1017.8 1017.9 0.0
25/10:30pm 10.4 9.4 7.3 81 1.5 NE 2 7 1 4 1017.9 - 0.0
25/10:00pm 10.7 9.1 7.9 83 1.4 NE 6 7 3 4 1017.7 1017.8 0.0
25/09:30pm 10.8 9.2 8.2 84 1.3 NE 6 9 3 5 1017.8 - 0.0
25/09:00pm 11.3 9.7 8.9 85 1.2 SE 7 9 4 5 1017.8 1017.9 0.0
25/08:30pm 10.9 9.2 8.3 84 1.3 E 7 9 4 5 1017.7 - 0.0
25/08:00pm 10.9 8.8 8.3 84 1.3 E 9 13 5 7 1017.7 1017.8 0.0
25/07:30pm 11.2 9.4 8.1 81 1.5 SE 7 9 4 5 1017.7 - 0.0
25/07:00pm 11.5 9.1 7.2 75 2.1 ENE 9 11 5 6 1017.3 1017.4 0.0
25/06:30pm 11.9 9.6 7.4 74 2.2 NE 9 15 5 8 1017.0 - 0.0

Other Formats:

Comma delimited format used in spreadsheet applications
http://www.bom.gov.au/fwo/IDT60801/IDT60801.95961.axf

JavaScript Object Notation format (JSON) in row-major order
http://www.bom.gov.au/fwo/IDT60801/IDT60801.95961.json